Time;durP1;ratioP1;P1;durP2;ratioP2;P2;SDS_P1;SDS_P2;PMS_P1;PMS_P2;Temp;Humidity;BMP_temperature;BMP_pressure;BME280_temperature;BME280_humidity;BME280_pressure;Samples;Min_cycle;Max_cycle;Signal;HPM_P1;HPM_P2
2022/06/23 00:00:50;;;;;;;19.50;6.15;;;;;;;17.57;62.87;101012.47;5055844;28;20025;-64
2022/06/23 00:03:20;;;;;;;19.90;6.60;;;;;;;17.45;63.80;101010.94;5055880;28;20398;-63
2022/06/23 00:05:51;;;;;;;18.73;6.30;;;;;;;17.42;65.42;101009.22;5055905;28;20040;-63
2022/06/23 00:08:17;;;;;;;20.40;6.80;;;;;;;17.41;65.67;101002.09;5055644;28;20487;-63
2022/06/23 00:10:47;;;;;;;21.17;6.75;;;;;;;17.36;66.08;101004.00;5055592;28;20108;-63
2022/06/23 00:13:23;;;;;;;20.25;6.97;;;;;;;17.36;66.05;101001.34;5055452;28;20040;-63
2022/06/23 00:15:50;;;;;;;19.48;6.72;;;;;;;17.28;67.86;101005.94;5055757;28;20420;-64
2022/06/23 00:18:23;;;;;;;19.52;7.10;;;;;;;17.32;67.79;101002.31;5055707;28;20025;-63
2022/06/23 00:20:52;;;;;;;19.23;7.30;;;;;;;17.25;68.86;101000.69;5055451;28;20423;-63
2022/06/23 00:23:41;;;;;;;19.40;7.03;;;;;;;17.21;67.71;100998.97;5055598;28;20078;-63
2022/06/23 00:26:19;;;;;;;21.17;7.43;;;;;;;17.07;70.06;101000.13;5052144;28;20033;-63
2022/06/23 00:28:47;;;;;;;19.60;7.60;;;;;;;16.99;72.78;100993.19;5052079;28;20029;-64
2022/06/23 00:31:38;;;;;;;19.63;7.65;;;;;;;16.96;72.44;100996.78;5054639;28;20488;-63
2022/06/23 00:34:13;;;;;;;20.10;7.80;;;;;;;16.96;73.41;101009.28;5051279;28;20480;-64
2022/06/23 00:36:46;;;;;;;21.95;7.72;;;;;;;16.92;75.81;101004.91;5051931;28;20033;-63
2022/06/23 00:39:31;;;;;;;19.73;7.70;;;;;;;16.93;75.36;101012.88;5054989;28;20480;-63
2022/06/23 00:41:57;;;;;;;19.48;7.50;;;;;;;16.81;76.89;101011.28;5055105;28;20103;-63
2022/06/23 00:44:52;;;;;;;20.15;7.88;;;;;;;16.88;75.28;101007.63;5054906;28;20610;-63
2022/06/23 00:47:25;;;;;;;19.05;7.53;;;;;;;16.79;78.38;101006.88;5052783;28;20044;-64
2022/06/23 00:50:04;;;;;;;21.30;7.82;;;;;;;16.69;79.48;101007.06;5054862;28;20033;-63
2022/06/23 00:52:40;;;;;;;21.48;8.35;;;;;;;16.65;79.92;101000.03;5055030;28;20037;-64
2022/06/23 00:55:40;;;;;;;19.98;7.70;;;;;;;16.63;80.63;100996.53;5051421;28;20029;-64
2022/06/23 00:58:18;;;;;;;20.45;8.13;;;;;;;16.60;82.61;100987.66;5050729;28;20093;-64
2022/06/23 01:00:44;;;;;;;19.88;7.75;;;;;;;16.64;83.54;100978.69;5052192;28;20029;-63
2022/06/23 01:03:25;;;;;;;22.63;8.93;;;;;;;16.54;82.77;100986.88;5054770;28;20029;-65
2022/06/23 01:05:58;;;;;;;21.10;8.40;;;;;;;16.53;85.10;100992.25;5054644;28;20029;-65
2022/06/23 01:08:42;;;;;;;20.42;8.80;;;;;;;16.50;84.82;100986.97;5054562;28;20025;-63
2022/06/23 01:11:19;;;;;;;21.88;9.73;;;;;;;16.48;86.39;100978.09;5051130;28;20024;-66
2022/06/23 01:13:55;;;;;;;21.60;9.57;;;;;;;16.49;86.65;100982.53;5054696;28;20029;-64
2022/06/23 01:16:26;;;;;;;21.73;9.45;;;;;;;16.50;88.68;100978.97;5054176;28;20028;-64
2022/06/23 01:19:21;;;;;;;21.40;9.80;;;;;;;16.49;88.51;100982.53;5054684;28;20074;-63
2022/06/23 01:21:53;;;;;;;22.85;10.35;;;;;;;16.46;91.07;100982.59;5052327;28;20029;-65
2022/06/23 01:24:35;;;;;;;24.05;10.38;;;;;;;16.31;94.03;100981.97;5054357;28;20107;-63
2022/06/23 01:27:48;;;;;;;24.10;10.73;;;;;;;16.28;93.97;100983.78;5054377;28;20035;-63
2022/06/23 01:30:14;;;;;;;22.85;10.45;;;;;;;16.20;98.29;100975.91;5035406;28;20037;-63
2022/06/23 01:32:52;;;;;;;23.38;10.80;;;;;;;16.18;99.63;100977.75;5043465;28;20501;-63
2022/06/23 01:35:44;;;;;;;23.17;10.30;;;;;;;16.18;98.24;100983.09;5041733;28;20038;-63
2022/06/23 01:38:17;;;;;;;23.20;10.70;;;;;;;16.12;100.00;100977.81;4961928;28;20046;-63
2022/06/23 01:41:04;;;;;;;22.88;10.75;;;;;;;16.15;100.00;100980.44;4962075;28;20047;-63
2022/06/23 01:43:40;;;;;;;23.00;10.68;;;;;;;16.12;100.00;100989.38;4962245;28;20043;-63
2022/06/23 01:46:14;;;;;;;22.67;10.90;;;;;;;16.10;100.00;100987.66;4965111;28;20035;-63
2022/06/23 01:48:52;;;;;;;22.77;10.65;;;;;;;16.11;100.00;100986.75;4964554;28;20100;-63
2022/06/23 01:51:25;;;;;;;22.33;10.85;;;;;;;16.03;100.00;100987.75;4963665;28;20493;-63
2022/06/23 01:54:26;;;;;;;22.95;11.00;;;;;;;16.00;100.00;100986.91;4965338;28;20121;-63
2022/06/23 01:56:57;;;;;;;23.13;11.18;;;;;;;16.00;100.00;100984.25;4965251;28;20453;-63
2022/06/23 01:59:45;;;;;;;23.83;11.45;;;;;;;15.90;100.00;100983.53;4963439;28;20031;-63
2022/06/23 02:02:10;;;;;;;23.58;11.73;;;;;;;15.93;100.00;100974.56;4961659;28;20577;-63
2022/06/23 02:04:50;;;;;;;22.73;11.65;;;;;;;15.95;100.00;100975.44;4964787;28;20026;-63
2022/06/23 02:07:22;;;;;;;24.40;11.60;;;;;;;15.93;100.00;100970.16;4966552;28;20035;-63
2022/06/23 02:09:50;;;;;;;24.40;11.90;;;;;;;15.89;100.00;100975.53;4972541;28;20379;-63
2022/06/23 02:12:29;;;;;;;23.73;11.75;;;;;;;15.81;100.00;100971.22;4972597;28;20063;-63
2022/06/23 02:15:04;;;;;;;23.83;11.68;;;;;;;15.79;100.00;100972.16;5004169;28;20060;-64
2022/06/23 02:17:55;;;;;;;24.73;12.80;;;;;;;15.79;100.00;100972.16;5053365;28;20028;-63
2022/06/23 02:20:26;;;;;;;26.90;12.48;;;;;;;15.79;100.00;100966.81;5051744;28;20056;-63
2022/06/23 02:23:05;;;;;;;24.55;11.65;;;;;;;15.78;100.00;100967.66;5053591;28;20032;-63
2022/06/23 02:25:36;;;;;;;24.52;12.15;;;;;;;15.68;100.00;100966.91;5053008;28;20353;-63
2022/06/23 02:28:25;;;;;;;24.15;12.23;;;;;;;15.60;100.00;100964.38;5052855;28;20057;-63
2022/06/23 02:31:00;;;;;;;23.95;12.48;;;;;;;15.62;100.00;100964.34;5051109;28;20059;-63
2022/06/23 02:33:32;;;;;;;24.13;12.15;;;;;;;15.72;100.00;100973.09;5052832;28;20069;-63
2022/06/23 02:36:07;;;;;;;24.38;11.95;;;;;;;15.71;100.00;100963.34;5052905;28;20033;-65
2022/06/23 02:38:42;;;;;;;24.67;12.60;;;;;;;15.73;100.00;100962.41;5052993;28;20472;-63
2022/06/23 02:41:35;;;;;;;25.33;12.13;;;;;;;15.80;100.00;100971.22;5052848;28;20100;-63
2022/06/23 02:44:16;;;;;;;23.88;12.15;;;;;;;15.88;100.00;100971.13;5042229;28;20124;-63
2022/06/23 02:47:09;;;;;;;24.80;12.75;;;;;;;15.87;100.00;100978.22;5042217;28;20042;-63
2022/06/23 02:50:11;;;;;;;23.48;12.43;;;;;;;15.83;100.00;100974.72;5043034;28;20049;-63
2022/06/23 02:52:57;;;;;;;24.27;12.43;;;;;;;15.80;100.00;100971.22;5038202;28;20034;-63
2022/06/23 02:55:43;;;;;;;25.27;12.93;;;;;;;15.70;100.00;100965.13;5040383;28;20365;-63
2022/06/23 02:58:33;;;;;;;25.30;12.98;;;;;;;15.66;100.00;100966.06;5038837;28;20131;-63
2022/06/23 03:01:12;;;;;;;24.63;12.77;;;;;;;15.63;100.00;100966.13;5042115;28;20132;-63
2022/06/23 03:03:59;;;;;;;23.90;12.70;;;;;;;15.62;100.00;100957.22;5038741;28;20045;-63
2022/06/23 03:06:29;;;;;;;24.48;13.30;;;;;;;15.59;100.00;100954.63;5042074;28;20034;-65
2022/06/23 03:08:58;;;;;;;25.63;13.63;;;;;;;15.61;100.00;100951.94;5039949;28;20045;-64
2022/06/23 03:11:54;;;;;;;24.70;12.95;;;;;;;15.63;100.00;100952.81;5040651;28;20120;-65
2022/06/23 03:14:50;;;;;;;27.33;13.77;;;;;;;15.54;100.00;100942.25;5042227;28;20440;-64
2022/06/23 03:17:33;;;;;;;24.40;13.35;;;;;;;15.46;100.00;100943.25;5041024;28;20086;-63
2022/06/23 03:20:23;;;;;;;25.25;13.20;;;;;;;15.44;100.00;100946.88;5040048;28;20250;-63
2022/06/23 03:23:17;;;;;;;24.58;13.05;;;;;;;15.35;100.00;100934.56;5050494;28;20172;-63
2022/06/23 03:25:49;;;;;;;24.48;13.07;;;;;;;15.30;100.00;100939.97;5049770;28;20024;-65
2022/06/23 03:28:17;;;;;;;23.95;12.98;;;;;;;15.28;100.00;100941.75;5052205;28;20460;-63
2022/06/23 03:30:53;;;;;;;24.38;13.07;;;;;;;15.27;100.00;100931.97;5052615;28;20032;-63
2022/06/23 03:33:28;;;;;;;24.60;13.07;;;;;;;15.21;100.00;100940.06;5052388;28;20082;-63
2022/06/23 03:36:02;;;;;;;24.40;13.43;;;;;;;15.15;100.00;100937.47;5052199;28;20021;-64
2022/06/23 03:41:38;;;;;;;24.17;12.52;;;;;;;15.09;100.00;100951.75;5051312;28;20384;-66
2022/06/23 03:44:30;;;;;;;23.33;11.93;;;;;;;15.10;100.00;100950.88;5048149;28;20029;-63
2022/06/23 03:47:04;;;;;;;23.23;12.95;;;;;;;15.10;100.00;100958.84;5047295;28;20045;-64
2022/06/23 03:49:38;;;;;;;25.42;12.45;;;;;;;15.14;100.00;100959.69;5052257;28;20032;-65
2022/06/23 03:52:13;;;;;;;24.17;12.52;;;;;;;15.11;100.00;100959.72;5052027;28;20025;-63
2022/06/23 03:54:47;;;;;;;24.40;12.13;;;;;;;15.09;100.00;100957.06;5048818;28;20021;-63
2022/06/23 03:57:31;;;;;;;25.08;12.90;;;;;;;15.12;100.00;100959.69;5049204;28;20027;-63
2022/06/23 04:00:01;;;;;;;23.63;12.45;;;;;;;15.16;100.00;100952.56;5052209;28;20100;-63
2022/06/23 04:02:38;;;;;;;25.20;12.93;;;;;;;15.13;100.00;100957.91;5051836;28;20450;-62
2022/06/23 04:05:04;;;;;;;24.23;12.30;;;;;;;15.18;100.00;100950.75;5054719;28;20079;-63
2022/06/23 04:07:29;;;;;;;24.50;12.30;;;;;;;15.17;100.00;100948.97;5055832;28;20033;-63
2022/06/23 04:10:07;;;;;;;23.48;12.50;;;;;;;15.14;100.00;100957.00;5055627;28;20036;-63
2022/06/23 04:12:35;;;;;;;24.58;12.63;;;;;;;15.12;100.00;100961.50;5055829;28;20032;-63
2022/06/23 04:15:18;;;;;;;23.42;12.50;;;;;;;15.16;100.00;100956.09;5055486;28;20036;-63
2022/06/23 04:17:45;;;;;;;25.48;11.90;;;;;;;15.24;100.00;100953.31;5052684;28;20029;-62
2022/06/23 04:20:16;;;;;;;23.88;12.77;;;;;;;15.24;100.00;100947.13;5055497;28;20471;-63
2022/06/23 04:22:53;;;;;;;23.27;12.45;;;;;;;15.25;100.00;100941.78;5055650;28;20361;-64
2022/06/23 04:25:22;;;;;;;24.88;12.60;;;;;;;15.27;100.00;100939.09;5055502;28;20039;-65
2022/06/23 04:27:55;;;;;;;23.63;12.32;;;;;;;15.32;100.00;100934.59;5055602;28;20071;-65
2022/06/23 04:30:34;;;;;;;22.95;12.57;;;;;;;15.39;100.00;100933.63;5055266;28;20029;-65
2022/06/23 04:33:05;;;;;;;23.58;12.63;;;;;;;15.45;100.00;100929.97;5055356;28;20028;-65
2022/06/23 04:35:36;;;;;;;23.88;12.43;;;;;;;15.49;100.00;100939.66;5055378;28;20021;-64
2022/06/23 04:38:17;;;;;;;25.33;12.70;;;;;;;15.47;100.00;100955.69;5054926;28;20067;-63
2022/06/23 04:40:43;;;;;;;23.75;12.30;;;;;;;15.56;100.00;100965.31;5052309;28;20021;-66
2022/06/23 04:43:18;;;;;;;24.20;11.85;;;;;;;15.60;100.00;100963.50;5055317;28;20115;-63
2022/06/23 04:46:09;;;;;;;24.95;12.25;;;;;;;15.63;100.00;100955.47;5052091;28;20045;-63
2022/06/23 04:48:56;;;;;;;23.17;11.80;;;;;;;15.71;100.00;100960.69;5054776;28;20492;-63
2022/06/23 04:51:38;;;;;;;23.48;11.60;;;;;;;15.77;100.00;100950.81;5053416;28;20083;-63
2022/06/23 04:54:09;;;;;;;26.50;12.23;;;;;;;15.82;100.00;100948.97;5054867;28;20029;-63
2022/06/23 04:56:46;;;;;;;25.38;12.73;;;;;;;15.85;100.00;100950.72;5050754;28;20048;-63
2022/06/23 04:59:29;;;;;;;23.60;12.75;;;;;;;15.91;100.00;100947.06;5051475;28;20033;-63
2022/06/23 05:01:58;;;;;;;25.05;12.82;;;;;;;15.95;100.00;100949.66;5054484;28;20052;-66
2022/06/23 05:04:31;;;;;;;24.63;12.25;;;;;;;15.99;100.00;100951.38;5054742;28;20033;-66
2022/06/23 05:06:59;;;;;;;23.73;12.02;;;;;;;16.07;100.00;100953.03;5054739;28;20387;-63
2022/06/23 05:09:37;;;;;;;24.52;12.15;;;;;;;16.12;100.00;100957.41;5054353;28;20025;-63
2022/06/23 05:12:27;;;;;;;23.70;11.85;;;;;;;16.23;100.00;100956.31;5054436;28;20025;-63
2022/06/23 05:15:02;;;;;;;23.08;11.38;;;;;;;16.28;100.00;100949.09;5052416;28;20494;-65
2022/06/23 05:17:31;;;;;;;23.67;11.88;;;;;;;16.34;100.00;100960.56;5053927;28;20024;-63
2022/06/23 05:20:05;;;;;;;23.20;11.40;;;;;;;16.37;100.00;100963.19;5054352;28;20039;-63
2022/06/23 05:22:36;;;;;;;24.45;11.85;;;;;;;16.43;100.00;100958.66;5054357;28;20545;-63
2022/06/23 05:25:30;;;;;;;21.92;10.90;;;;;;;16.56;100.00;100952.16;5051434;28;20103;-66
2022/06/23 05:27:56;;;;;;;22.80;11.15;;;;;;;16.65;100.00;100957.31;5029186;28;20033;-65
2022/06/23 05:30:30;;;;;;;22.67;10.60;;;;;;;16.69;100.00;100948.34;5026611;28;20498;-65
2022/06/23 05:33:02;;;;;;;23.42;11.05;;;;;;;16.78;100.00;100951.75;5029869;28;20506;-64
2022/06/23 05:35:46;;;;;;;23.48;10.60;;;;;;;16.89;100.00;100953.34;5026146;28;20034;-64
2022/06/23 05:38:32;;;;;;;22.58;10.55;;;;;;;16.96;100.00;100951.41;5029585;28;20029;-65
2022/06/23 05:41:02;;;;;;;22.42;10.82;;;;;;;17.06;98.91;100963.66;5026782;28;20057;-66
2022/06/23 05:43:30;;;;;;;22.73;10.20;;;;;;;17.15;98.73;100962.59;5030046;28;20035;-66
2022/06/23 05:46:00;;;;;;;22.98;10.57;;;;;;;17.24;99.19;100950.81;5009231;28;20069;-65
2022/06/23 05:48:34;;;;;;;21.48;10.50;;;;;;;17.36;96.52;100953.25;5024793;28;20154;-66
2022/06/23 05:51:15;;;;;;;21.58;10.13;;;;;;;17.44;94.54;100953.06;5024088;28;20033;-66
2022/06/23 05:53:49;;;;;;;23.10;10.43;;;;;;;17.57;93.86;100957.22;5029035;28;20384;-65
2022/06/23 05:56:24;;;;;;;22.13;10.23;;;;;;;17.66;93.53;100957.91;5029135;28;20033;-66
2022/06/23 05:58:56;;;;;;;22.83;10.27;;;;;;;17.77;93.69;100955.88;5023486;28;20045;-66
2022/06/23 06:01:32;;;;;;;21.93;10.07;;;;;;;17.83;90.54;100962.88;5026941;28;20116;-65
2022/06/23 06:04:09;;;;;;;23.52;10.93;;;;;;;17.92;90.41;100968.03;5031715;28;20037;-66
2022/06/23 06:06:34;;;;;;;21.10;9.85;;;;;;;18.02;88.50;100966.03;5049465;28;20025;-65
2022/06/23 06:11:51;;;;;;;22.27;9.68;;;;;;;18.22;88.68;100952.16;5051172;28;20506;-64
2022/06/23 06:14:20;;;;;;;22.88;10.20;;;;;;;18.29;87.04;100951.06;5050346;28;20032;-66
2022/06/23 06:16:46;;;;;;;23.10;9.82;;;;;;;18.39;86.84;100951.69;5051329;28;20047;-66
2022/06/23 06:19:21;;;;;;;22.40;9.70;;;;;;;18.47;86.81;100941.66;5049436;28;20040;-66
2022/06/23 06:21:47;;;;;;;21.15;9.82;;;;;;;18.55;86.24;100944.13;5050976;28;20024;-65
2022/06/23 06:24:38;;;;;;;21.15;9.60;;;;;;;18.68;87.89;100942.88;5050820;28;20104;-65
2022/06/23 06:27:11;;;;;;;21.40;9.35;;;;;;;18.77;88.54;100939.94;5008496;28;20042;-65
2022/06/23 06:29:39;;;;;;;22.23;9.70;;;;;;;18.85;85.36;100937.03;5006849;28;20525;-67
2022/06/23 06:32:12;;;;;;;22.38;10.23;;;;;;;18.89;84.39;100944.09;5008913;28;20497;-64
2022/06/23 06:34:42;;;;;;;21.67;9.70;;;;;;;19.03;85.07;100946.38;5009054;28;20038;-64
2022/06/23 06:37:11;;;;;;;23.85;10.07;;;;;;;19.12;83.35;100955.94;5008588;28;20025;-65
2022/06/23 06:39:40;;;;;;;24.63;10.35;;;;;;;19.22;83.83;100956.56;5008405;28;20038;-65
2022/06/23 06:42:13;;;;;;;23.00;9.50;;;;;;;19.28;83.28;100956.34;5009147;28;20392;-64
2022/06/23 06:44:43;;;;;;;22.45;9.95;;;;;;;19.38;82.85;100963.19;5008991;28;20049;-64
2022/06/23 06:47:20;;;;;;;23.02;9.50;;;;;;;19.49;83.73;100954.84;5008306;28;20136;-64
2022/06/23 06:49:46;;;;;;;22.13;9.85;;;;;;;19.60;82.47;100955.38;5009012;28;20087;-64
2022/06/23 06:52:12;;;;;;;22.45;9.50;;;;;;;19.71;82.38;100946.13;5008577;28;20112;-65
2022/06/23 06:54:44;;;;;;;22.83;9.75;;;;;;;19.81;81.50;100944.94;5008901;28;20038;-64
2022/06/23 06:57:16;;;;;;;23.25;9.43;;;;;;;19.92;80.40;100947.25;5004098;28;20405;-65
2022/06/23 06:59:50;;;;;;;23.50;9.65;;;;;;;20.05;80.11;100948.59;5003665;28;20046;-65
2022/06/23 07:02:27;;;;;;;23.20;9.45;;;;;;;20.13;79.94;100951.91;5002697;28;20087;-63
2022/06/23 07:05:03;;;;;;;21.55;9.55;;;;;;;20.25;80.30;100949.75;5042769;28;20045;-63
2022/06/23 07:07:37;;;;;;;21.73;9.68;;;;;;;20.34;78.86;100954.78;5050260;28;20090;-63
2022/06/23 07:10:13;;;;;;;21.70;9.90;;;;;;;20.43;77.56;100965.22;5050754;28;20036;-65
2022/06/23 07:12:45;;;;;;;24.20;10.10;;;;;;;20.52;78.10;100969.38;5050054;28;20025;-64
2022/06/23 07:15:32;;;;;;;;;;;;;;;20.58;78.30;100966.47;5050321;28;20476;-64
2022/06/23 07:18:29;;;;;;;22.08;9.30;;;;;;;20.79;76.17;100964.84;5050532;28;19966;-63
2022/06/23 07:21:09;;;;;;;22.95;9.00;;;;;;;20.98;73.36;100961.50;5049667;28;20021;-64
2022/06/23 07:23:51;;;;;;;21.80;9.20;;;;;;;21.14;73.82;100956.41;5050529;28;20036;-64
2022/06/23 07:26:40;;;;;;;21.15;9.02;;;;;;;21.34;74.04;100958.34;5048298;28;20468;-66
2022/06/23 07:29:17;;;;;;;23.13;9.10;;;;;;;21.48;72.48;100952.41;5046203;28;20064;-63
2022/06/23 07:31:52;;;;;;;20.77;8.55;;;;;;;21.57;71.04;100952.97;5050284;28;20056;-66
2022/06/23 07:34:21;;;;;;;21.60;8.82;;;;;;;21.74;72.37;100962.16;5050790;28;20051;-66
2022/06/23 07:36:55;;;;;;;21.25;9.32;;;;;;;21.87;72.15;100954.47;5050119;28;20057;-67
2022/06/23 07:39:25;;;;;;;21.00;8.85;;;;;;;22.02;72.44;100947.56;5049780;28;20017;-65
2022/06/23 07:42:12;;;;;;;21.02;8.77;;;;;;;22.20;71.70;100941.41;5054208;28;20067;-65
2022/06/23 07:44:44;;;;;;;22.33;9.40;;;;;;;22.38;70.00;100942.50;5054094;28;20083;-65
2022/06/23 07:47:10;;;;;;;21.67;8.65;;;;;;;22.50;69.42;100940.19;5049786;28;20098;-65
2022/06/23 07:49:35;;;;;;;21.05;9.07;;;;;;;22.60;71.18;100939.72;5054162;28;20053;-65
2022/06/23 07:52:02;;;;;;;22.23;9.48;;;;;;;22.76;70.34;100941.72;5054156;28;20029;-65
2022/06/23 07:54:28;;;;;;;23.00;9.65;;;;;;;22.87;71.38;100939.41;5054043;28;20060;-63
2022/06/23 07:56:54;;;;;;;21.67;9.43;;;;;;;23.02;70.93;100945.91;5053219;28;20032;-63
2022/06/23 07:59:26;;;;;;;22.33;9.73;;;;;;;23.13;69.95;100951.72;5054519;28;20028;-63
2022/06/23 08:01:57;;;;;;;21.52;9.20;;;;;;;23.24;70.24;100944.94;5053041;28;20033;-69
2022/06/23 08:04:42;;;;;;;23.42;10.05;;;;;;;23.33;68.76;100947.22;5051414;28;20024;-69
2022/06/23 08:07:10;;;;;;;22.27;9.43;;;;;;;23.50;69.75;100946.41;5051191;28;20132;-68
2022/06/23 08:09:52;;;;;;;24.70;9.90;;;;;;;23.65;69.08;100948.38;5051444;28;20480;-70
2022/06/23 08:18:20;;;;;;;22.48;9.40;;;;;;;24.04;67.64;100941.06;5051929;28;20040;-66
2022/06/23 08:21:06;;;;;;;22.30;9.23;;;;;;;24.19;69.47;100936.75;5051189;28;20104;-66
2022/06/23 08:23:37;;;;;;;22.10;9.00;;;;;;;24.35;68.64;100937.69;5049672;28;20033;-69
2022/06/23 08:26:06;;;;;;;22.25;9.38;;;;;;;24.34;66.20;100932.38;5048316;28;20017;-65
2022/06/23 08:28:32;;;;;;;21.15;8.55;;;;;;;24.48;67.40;100926.22;5049770;28;20032;-65
2022/06/23 08:30:57;;;;;;;22.83;8.57;;;;;;;24.59;65.12;100922.97;5051202;28;20028;-66
2022/06/23 08:33:23;;;;;;;23.30;8.50;;;;;;;24.76;65.68;100928.38;5051382;28;20025;-64
2022/06/23 08:35:51;;;;;;;22.70;7.55;;;;;;;24.85;64.43;100935.13;5051570;28;20111;-64
2022/06/23 08:38:44;;;;;;;20.80;7.03;;;;;;;24.98;63.61;100933.50;5050577;28;20035;-65
2022/06/23 08:41:17;;;;;;;20.15;6.32;;;;;;;25.10;65.43;100950.00;5008564;28;20045;-65
2022/06/23 08:43:49;;;;;;;19.85;7.20;;;;;;;25.20;63.20;100935.00;5009842;28;20072;-66
2022/06/23 08:46:21;;;;;;;21.87;6.97;;;;;;;25.33;63.25;100930.69;5009784;28;20030;-63
2022/06/23 08:49:27;;;;;;;19.85;6.22;;;;;;;25.47;62.98;100929.03;4989962;28;20308;-65
2022/06/23 08:51:55;;;;;;;22.50;7.82;;;;;;;25.38;59.82;100934.03;4987259;28;20042;-65
2022/06/23 08:54:33;;;;;;;21.83;6.97;;;;;;;25.44;62.08;100940.03;4989863;28;20037;-65
2022/06/23 08:57:20;;;;;;;20.55;7.63;;;;;;;25.51;59.55;100936.03;4990116;28;20394;-65
2022/06/23 08:59:56;;;;;;;22.80;6.90;;;;;;;25.84;60.88;100937.75;4990231;28;20038;-64
2022/06/23 09:02:37;;;;;;;22.55;7.28;;;;;;;25.89;60.46;100931.13;4989831;28;20034;-64
2022/06/23 09:05:31;;;;;;;21.30;6.65;;;;;;;26.10;61.26;100922.72;4986526;28;20041;-65
2022/06/23 09:08:09;;;;;;;20.77;6.55;;;;;;;26.37;58.71;100922.00;4989521;28;20093;-66
2022/06/23 09:10:55;;;;;;;20.52;6.90;;;;;;;26.64;57.22;100930.28;4989900;28;20026;-64
2022/06/23 09:13:43;;;;;;;21.73;6.90;;;;;;;26.77;57.30;100922.28;4989088;28;20073;-67
2022/06/23 09:16:39;;;;;;;20.48;6.60;;;;;;;26.96;57.69;100920.16;4972414;28;20050;-66
2022/06/23 09:19:30;;;;;;;21.77;6.00;;;;;;;27.10;57.74;100919.28;5009501;28;20504;-66
2022/06/23 09:22:15;;;;;;;21.38;6.55;;;;;;;27.31;57.95;100925.16;5012799;28;20079;-65
2022/06/23 09:24:56;;;;;;;20.63;6.00;;;;;;;27.38;56.20;100922.06;5013358;28;20025;-65
2022/06/23 09:27:34;;;;;;;19.73;5.82;;;;;;;27.54;56.60;100922.81;5008824;28;20022;-64
2022/06/23 09:30:16;;;;;;;17.15;4.90;;;;;;;27.53;56.35;100917.50;5011053;28;20099;-65
2022/06/23 09:32:58;;;;;;;19.95;5.10;;;;;;;27.38;56.51;100916.63;5012925;28;20096;-65
2022/06/23 09:35:49;;;;;;;19.02;5.05;;;;;;;27.40;56.94;100914.72;5012623;28;20109;-69
2022/06/23 09:38:17;;;;;;;20.23;5.38;;;;;;;27.51;55.40;100906.75;5012466;28;20088;-66
2022/06/23 09:40:51;;;;;;;21.25;5.20;;;;;;;27.57;56.51;100908.19;5011818;28;20026;-66
2022/06/23 09:43:54;;;;;;;20.50;5.05;;;;;;;27.95;55.34;100908.31;5012500;28;20026;-66
2022/06/23 09:46:41;;;;;;;19.55;5.30;;;;;;;28.67;54.73;100901.59;5011899;28;20030;-66
2022/06/23 09:49:35;;;;;;;18.73;5.35;;;;;;;28.82;54.53;100914.13;5052397;28;20072;-69
2022/06/23 09:52:26;;;;;;;19.42;5.18;;;;;;;29.41;52.22;100909.91;5051631;28;20060;-68
2022/06/23 09:55:22;;;;;;;22.98;5.55;;;;;;;30.03;51.34;100899.84;5009666;28;20120;-68
2022/06/23 09:58:23;;;;;;;21.60;5.80;;;;;;;30.53;51.36;100902.38;5009250;28;20052;-64
2022/06/23 10:00:51;;;;;;;19.40;5.90;;;;;;;30.43;49.16;100894.88;4950546;29;20075;-64
2022/06/23 10:03:43;;;;;;;21.60;6.00;;;;;;;29.65;50.47;100900.88;4951409;28;20121;-65
2022/06/23 10:06:49;;;;;;;20.38;6.50;;;;;;;29.23;53.35;100908.53;4950884;28;20043;-65
2022/06/23 10:09:45;;;;;;;22.05;7.07;;;;;;;29.30;51.78;100904.38;4950554;29;20114;-64
2022/06/23 10:12:21;;;;;;;21.65;6.75;;;;;;;29.49;50.62;100901.16;4951079;29;20039;-64
2022/06/23 10:15:05;;;;;;;20.05;6.30;;;;;;;31.58;48.82;100904.84;4951458;29;20042;-64
2022/06/23 10:18:01;;;;;;;21.48;6.88;;;;;;;33.17;40.89;100902.94;4948976;29;20513;-65
2022/06/23 10:20:47;;;;;;;21.73;6.78;;;;;;;30.97;44.02;100899.78;4949927;29;20035;-65
2022/06/23 10:23:46;;;;;;;22.08;6.90;;;;;;;31.44;44.56;100905.94;4951076;29;20047;-65
2022/06/23 10:26:28;;;;;;;21.20;6.32;;;;;;;33.74;41.97;100902.34;4952431;29;20126;-65
2022/06/23 10:29:24;;;;;;;20.65;6.30;;;;;;;34.38;40.30;100900.91;4953161;29;20039;-64
2022/06/23 10:31:55;;;;;;;22.42;6.95;;;;;;;33.64;39.61;100905.06;4971563;28;20038;-65
2022/06/23 10:34:37;;;;;;;21.15;6.70;;;;;;;34.61;38.67;100888.72;4987880;28;20089;-65
2022/06/23 10:37:40;;;;;;;20.33;6.00;;;;;;;35.20;36.34;100892.09;5036394;28;20039;-65
2022/06/23 10:40:08;;;;;;;21.17;6.00;;;;;;;36.22;34.72;100890.06;5024817;28;20116;-64
2022/06/23 10:42:39;;;;;;;19.25;5.40;;;;;;;37.05;31.82;100886.84;5014378;28;20137;-65
2022/06/23 10:45:25;;;;;;;21.67;5.55;;;;;;;36.61;31.96;100884.16;5030812;28;20053;-65
2022/06/23 10:47:56;;;;;;;18.27;4.85;;;;;;;34.27;33.78;100881.03;5026441;28;20049;-64
2022/06/23 10:50:56;;;;;;;20.17;5.20;;;;;;;34.05;35.30;100881.16;5030752;28;20025;-64
2022/06/23 10:53:56;;;;;;;19.95;5.20;;;;;;;34.39;34.94;100874.34;5026330;28;20068;-64
2022/06/23 10:56:43;;;;;;;19.55;5.07;;;;;;;36.55;33.49;100865.56;5026905;28;20075;-65
2022/06/23 10:59:11;;;;;;;18.63;4.75;;;;;;;37.70;28.14;100873.41;5030781;28;20146;-64
2022/06/23 11:02:06;;;;;;;21.00;5.35;;;;;;;36.45;31.22;100866.53;5030499;28;20083;-65
2022/06/23 11:04:56;;;;;;;21.30;5.30;;;;;;;35.70;32.35;100864.16;5030467;28;20036;-65
2022/06/23 11:07:53;;;;;;;20.50;5.47;;;;;;;35.64;31.49;100858.47;5030710;28;20029;-65
2022/06/23 11:10:40;;;;;;;19.52;5.43;;;;;;;35.30;34.22;100861.88;4980058;28;20137;-65
2022/06/23 11:13:25;;;;;;;21.10;5.30;;;;;;;37.94;31.15;100867.09;5010160;28;20126;-65
2022/06/23 11:15:53;;;;;;;20.13;5.22;;;;;;;37.53;29.88;100861.50;5010677;28;20026;-65
2022/06/23 11:18:45;;;;;;;19.67;5.28;;;;;;;38.44;29.90;100863.25;5010807;28;20040;-64
2022/06/23 11:21:28;;;;;;;19.48;5.25;;;;;;;37.16;30.51;100861.75;5010287;28;20044;-65
2022/06/23 11:24:03;;;;;;;18.85;5.22;;;;;;;35.59;32.54;100861.66;5010726;28;20050;-65
2022/06/23 11:26:46;;;;;;;19.92;5.30;;;;;;;37.54;30.20;100857.72;5002524;28;20035;-65
2022/06/23 11:29:20;;;;;;;19.15;5.40;;;;;;;39.08;26.91;100862.38;5010729;28;20065;-65
2022/06/23 11:31:55;;;;;;;21.17;5.38;;;;;;;37.09;28.49;100866.19;5010468;28;20052;-65
2022/06/23 11:34:28;;;;;;;20.35;5.28;;;;;;;37.02;29.70;100864.25;5010508;28;20084;-64
2022/06/23 11:37:05;;;;;;;20.50;5.57;;;;;;;38.51;28.39;100867.03;5010527;28;20104;-64
2022/06/23 11:40:04;;;;;;;20.13;5.40;;;;;;;37.30;28.63;100867.66;5010516;28;20132;-64
2022/06/23 11:42:48;;;;;;;20.08;5.25;;;;;;;37.43;29.17;100856.16;4959951;28;20086;-64
2022/06/23 11:45:25;;;;;;;21.48;5.55;;;;;;;38.04;29.07;100854.00;4975097;28;20117;-64
2022/06/23 11:48:12;;;;;;;21.45;5.40;;;;;;;37.33;29.34;100865.44;5025724;28;20104;-64
2022/06/23 11:50:53;;;;;;;20.85;5.40;;;;;;;35.95;31.19;100853.41;5044677;28;20041;-64
2022/06/23 11:53:56;;;;;;;22.73;5.60;;;;;;;37.78;30.48;100852.25;5029943;28;20201;-64
2022/06/23 11:56:55;;;;;;;22.35;5.30;;;;;;;39.59;27.03;100841.75;5024216;28;20041;-64
2022/06/23 11:59:23;;;;;;;21.38;5.38;;;;;;;41.08;24.64;100848.38;5029607;28;20120;-64
2022/06/23 12:01:48;;;;;;;19.38;5.03;;;;;;;39.85;24.74;100841.34;5029412;28;20474;-64
2022/06/23 12:04:32;;;;;;;21.20;5.38;;;;;;;39.51;25.87;100842.63;5029593;28;20034;-64
2022/06/23 12:07:25;;;;;;;21.23;5.50;;;;;;;40.24;25.74;100834.78;5026483;28;20072;-64
2022/06/23 12:10:12;;;;;;;18.92;5.20;;;;;;;41.33;23.53;100844.41;5029794;28;20040;-64
2022/06/23 12:12:40;;;;;;;20.23;5.47;;;;;;;39.99;25.92;100832.25;5028070;28;20551;-64
2022/06/23 12:15:07;;;;;;;19.27;5.65;;;;;;;39.10;25.59;100837.31;5029972;28;20438;-64